Terminal Aerodrome Forecast
Issued by NWS Duluth, MN

Home | Current Version | Previous Version | Text Only | Print | Product List | Glossary On
Versions: 1 2 3 4 5 6 7 8 9 10 11 12 13 14 15 16 17 18 19 20 21 22 23 24 25 26 27 28 29
000
FTUS43 KDLH 012300
TAFDLH
TAF
KDLH 012337Z 0200/0224 12014KT P6SM FEW070 BKN120 WS020/21040KT
      TEMPO 0201/0203 -TSRA BKN035CB
     FM020300 26009KT P6SM SCT100
     FM021500 27015G28KT P6SM SKC
     FM021800 26017G30KT P6SM SCT035=

USA.gov is the U.S. government's official web portal to all federal, state and local government web resources and services.